Time;durP1;ratioP1;P1;durP2;ratioP2;P2;SDS_P1;SDS_P2;PMS_P1;PMS_P2;Temp;Humidity;BMP_temperature;BMP_pressure;BME280_temperature;BME280_humidity;BME280_pressure;Samples;Min_cycle;Max_cycle;Signal;HPM_P1;HPM_P2
2021/05/25 00:00:42;;;;;;;3.45;0.85;;;11.60;99.90;;;;;;4110951;28;20415;-81
2021/05/25 00:02:45;;;;;;;0.90;0.55;;;11.60;99.90;;;;;;4126372;28;20034;-81
2021/05/25 00:04:46;;;;;;;1.98;0.95;;;11.60;99.90;;;;;;4143852;28;20046;-81
2021/05/25 00:06:47;;;;;;;2.30;0.90;;;11.60;99.90;;;;;;4111594;28;20042;-81
2021/05/25 00:08:47;;;;;;;2.83;1.15;;;11.50;99.90;;;;;;4127802;28;20501;-81
2021/05/25 00:10:48;;;;;;;1.27;0.68;;;11.50;99.90;;;;;;4127143;28;20035;-81
2021/05/25 00:12:48;;;;;;;1.17;0.68;;;11.50;99.90;;;;;;4126797;28;20086;-81
2021/05/25 00:14:49;;;;;;;1.27;0.73;;;11.50;99.90;;;;;;4129062;28;20566;-81
2021/05/25 00:16:51;;;;;;;2.08;0.82;;;11.50;99.90;;;;;;4127507;28;20375;-80
2021/05/25 00:18:52;;;;;;;1.02;0.70;;;11.40;99.90;;;;;;4126627;28;20031;-81
2021/05/25 00:20:53;;;;;;;1.70;0.88;;;11.40;99.90;;;;;;4126090;28;20027;-81
2021/05/25 00:22:54;;;;;;;3.25;1.08;;;11.30;99.90;;;;;;4126925;28;20026;-81
2021/05/25 00:24:54;;;;;;;1.77;0.85;;;11.40;99.90;;;;;;4126632;28;20107;-81
2021/05/25 00:26:55;;;;;;;2.45;0.60;;;11.30;99.90;;;;;;4127064;28;20030;-81
2021/05/25 00:28:55;;;;;;;2.28;1.02;;;11.30;99.90;;;;;;4109765;28;20026;-81
2021/05/25 00:30:56;;;;;;;2.63;0.90;;;11.30;99.90;;;;;;4126490;28;20046;-81
2021/05/25 00:32:57;;;;;;;1.48;0.75;;;11.30;99.90;;;;;;4128448;28;20035;-81
2021/05/25 00:34:57;;;;;;;1.80;0.90;;;11.30;99.90;;;;;;4110966;28;20035;-81
2021/05/25 00:36:58;;;;;;;1.95;0.85;;;11.30;99.90;;;;;;4126492;28;20423;-81
2021/05/25 00:38:58;;;;;;;2.13;0.98;;;11.30;99.90;;;;;;4126495;28;20030;-81
2021/05/25 00:40:59;;;;;;;1.88;0.85;;;11.20;99.90;;;;;;4126884;28;20030;-81
2021/05/25 00:43:00;;;;;;;1.52;0.70;;;11.30;99.90;;;;;;4110468;28;20054;-81
2021/05/25 00:45:02;;;;;;;1.15;0.85;;;11.20;99.90;;;;;;4126329;28;20041;-81
2021/05/25 00:47:03;;;;;;;2.53;0.88;;;11.30;99.90;;;;;;4126200;28;20028;-81
2021/05/25 00:49:05;;;;;;;1.77;0.88;;;11.20;99.90;;;;;;4125574;28;20034;-81
2021/05/25 00:51:06;;;;;;;1.70;0.80;;;11.20;99.90;;;;;;4127449;28;20026;-81
2021/05/25 00:53:06;;;;;;;3.15;0.60;;;11.10;99.90;;;;;;4110997;28;20286;-81
2021/05/25 00:55:11;;;;;;;1.50;0.70;;;11.10;99.90;;;;;;4126648;28;20034;-81
2021/05/25 00:57:12;;;;;;;1.20;0.70;;;11.10;99.90;;;;;;4126687;28;20681;-81
2021/05/25 00:59:12;;;;;;;1.55;0.82;;;11.00;99.90;;;;;;4126246;28;20050;-81
2021/05/25 01:01:13;;;;;;;1.58;0.80;;;11.00;99.90;;;;;;4127206;28;20402;-81
2021/05/25 01:03:20;;;;;;;2.45;0.77;;;11.00;99.90;;;;;;4111343;28;20035;-81
2021/05/25 01:05:21;;;;;;;0.90;0.55;;;11.00;99.90;;;;;;4124594;28;20054;-81
2021/05/25 01:07:21;;;;;;;1.25;0.85;;;11.00;99.90;;;;;;4110650;28;20049;-81
2021/05/25 01:09:22;;;;;;;1.90;0.60;;;10.90;99.90;;;;;;4110504;28;20123;-81
2021/05/25 01:11:22;;;;;;;3.45;0.88;;;10.90;99.90;;;;;;4127842;28;20229;-81
2021/05/25 01:13:27;;;;;;;2.25;0.80;;;10.90;99.90;;;;;;4110392;28;20035;-80
2021/05/25 01:15:28;;;;;;;2.65;0.63;;;10.90;99.90;;;;;;4126603;28;20093;-80
2021/05/25 01:17:29;;;;;;;0.77;0.65;;;10.90;99.90;;;;;;4128209;28;20113;-81
2021/05/25 01:19:29;;;;;;;1.05;0.70;;;10.90;99.90;;;;;;4126347;28;20563;-81
2021/05/25 01:21:35;;;;;;;1.15;0.75;;;10.90;99.90;;;;;;4109930;28;20241;-81
2021/05/25 01:23:36;;;;;;;1.08;0.82;;;10.80;99.90;;;;;;4123273;28;20080;-81
2021/05/25 01:25:42;;;;;;;2.63;0.80;;;10.90;99.90;;;;;;4109775;28;20034;-81
2021/05/25 01:27:50;;;;;;;1.58;0.60;;;10.90;99.90;;;;;;4128097;28;20038;-81
2021/05/25 01:29:51;;;;;;;1.45;0.50;;;10.80;99.90;;;;;;4111105;28;20047;-81
2021/05/25 01:31:52;;;;;;;2.65;0.63;;;10.80;99.90;;;;;;4126353;28;20481;-81
2021/05/25 01:33:52;;;;;;;1.33;0.50;;;10.90;99.90;;;;;;4110852;28;20034;-81
2021/05/25 01:35:54;;;;;;;2.25;0.80;;;10.80;99.90;;;;;;4142647;28;20038;-81
2021/05/25 01:37:56;;;;;;;3.65;0.70;;;10.90;99.90;;;;;;4126807;28;20034;-81
2021/05/25 01:39:57;;;;;;;1.45;0.55;;;10.80;99.90;;;;;;4127217;28;20038;-81
2021/05/25 01:41:57;;;;;;;3.38;1.05;;;10.80;99.90;;;;;;4110352;28;20380;-81
2021/05/25 01:43:58;;;;;;;2.83;0.80;;;10.70;99.90;;;;;;4110965;28;20523;-81
2021/05/25 01:45:59;;;;;;;0.60;0.40;;;10.70;99.90;;;;;;4127000;28;20093;-81
2021/05/25 01:48:01;;;;;;;0.80;0.60;;;10.70;99.90;;;;;;4126468;28;20045;-81
2021/05/25 01:50:12;;;;;;;2.15;0.80;;;10.70;99.90;;;;;;4128147;28;20027;-81
2021/05/25 01:52:13;;;;;;;2.17;0.80;;;10.70;99.90;;;;;;4126648;28;20030;-81
2021/05/25 01:54:14;;;;;;;2.25;0.70;;;10.70;99.90;;;;;;4110531;28;20038;-82
2021/05/25 01:56:16;;;;;;;2.35;0.65;;;10.70;99.90;;;;;;4126027;28;20372;-82
2021/05/25 01:58:27;;;;;;;3.15;0.95;;;10.60;99.90;;;;;;4126211;28;20506;-82
2021/05/25 02:00:28;;;;;;;1.88;0.90;;;10.70;99.90;;;;;;4144273;28;20103;-82
2021/05/25 02:02:29;;;;;;;2.95;1.13;;;10.60;99.90;;;;;;4113340;28;20031;-81
2021/05/25 02:04:32;;;;;;;1.50;0.68;;;10.70;99.90;;;;;;4129648;28;20037;-81
2021/05/25 02:06:32;;;;;;;2.83;0.80;;;10.70;99.90;;;;;;4127820;28;20339;-81
2021/05/25 02:08:34;;;;;;;1.77;0.70;;;10.70;99.90;;;;;;4128842;28;20060;-81
2021/05/25 02:10:36;;;;;;;1.63;0.90;;;10.70;99.90;;;;;;4128896;28;20030;-81
2021/05/25 02:12:36;;;;;;;2.80;0.57;;;10.70;99.90;;;;;;4113087;28;20154;-81
2021/05/25 02:14:37;;;;;;;1.58;0.70;;;10.60;99.90;;;;;;4112813;28;20108;-81
2021/05/25 02:16:37;;;;;;;1.13;0.55;;;10.60;99.90;;;;;;4128098;28;20032;-81
2021/05/25 02:18:44;;;;;;;1.38;0.70;;;10.60;99.90;;;;;;4129302;28;20034;-81
2021/05/25 02:20:47;;;;;;;2.03;0.77;;;10.60;99.90;;;;;;4128936;28;20057;-82
2021/05/25 02:22:47;;;;;;;;;;;10.70;99.90;;;;;;4105554;28;20047;-82
2021/05/25 02:24:48;;;;;;;1.75;0.63;;;10.60;99.90;;;;;;4114945;28;19911;-82
2021/05/25 02:26:49;;;;;;;1.15;0.70;;;10.60;99.90;;;;;;4123559;28;20130;-81
2021/05/25 02:28:49;;;;;;;1.02;0.47;;;10.60;99.90;;;;;;4112672;28;20463;-81
2021/05/25 02:30:50;;;;;;;1.08;0.70;;;10.60;99.90;;;;;;4129400;28;20407;-81
2021/05/25 02:32:51;;;;;;;3.00;0.70;;;10.60;99.90;;;;;;4111823;28;20575;-81
2021/05/25 02:34:51;;;;;;;1.13;0.50;;;10.50;99.90;;;;;;4144203;28;20054;-81
2021/05/25 02:36:52;;;;;;;2.00;0.70;;;10.50;99.90;;;;;;4129155;28;20085;-81
2021/05/25 02:38:52;;;;;;;1.25;0.95;;;10.50;99.90;;;;;;4113210;28;20046;-81
2021/05/25 02:40:53;;;;;;;1.63;0.63;;;10.50;99.90;;;;;;4109794;28;20388;-81
2021/05/25 02:42:54;;;;;;;0.85;0.40;;;10.50;99.90;;;;;;4118834;28;20039;-81
2021/05/25 02:44:54;;;;;;;1.58;0.70;;;10.50;99.90;;;;;;4129852;28;20109;-81
2021/05/25 02:46:56;;;;;;;0.90;0.55;;;10.50;99.90;;;;;;4112556;28;20034;-81
2021/05/25 02:48:57;;;;;;;0.73;0.40;;;10.50;99.90;;;;;;4112044;28;20050;-81
2021/05/25 02:50:58;;;;;;;0.80;0.50;;;10.60;99.90;;;;;;4130014;28;20042;-81
2021/05/25 02:52:59;;;;;;;1.60;0.60;;;10.50;99.90;;;;;;4127796;28;20027;-81
2021/05/25 02:55:00;;;;;;;2.25;0.95;;;10.60;99.90;;;;;;4111764;28;20064;-81
2021/05/25 02:57:01;;;;;;;1.55;0.60;;;10.50;99.90;;;;;;4113190;28;20038;-81
2021/05/25 02:59:01;;;;;;;1.42;0.63;;;10.50;99.90;;;;;;4126995;28;20479;-81
2021/05/25 03:01:02;;;;;;;1.02;0.28;;;10.50;99.90;;;;;;4127618;28;20027;-81
2021/05/25 03:03:04;;;;;;;2.17;0.70;;;10.50;99.90;;;;;;4128255;28;20434;-81
2021/05/25 03:05:07;;;;;;;0.32;0.32;;;10.50;99.90;;;;;;4129364;28;20026;-81
2021/05/25 03:07:08;;;;;;;1.85;0.50;;;10.50;99.90;;;;;;4113087;28;20035;-81
2021/05/25 03:09:09;;;;;;;3.38;0.60;;;10.50;99.90;;;;;;4129211;28;20030;-81
2021/05/25 03:11:09;;;;;;;0.40;0.30;;;10.50;99.90;;;;;;4111071;28;20035;-81
2021/05/25 03:13:10;;;;;;;1.80;0.60;;;10.50;99.90;;;;;;4111803;28;20439;-81
2021/05/25 03:15:14;;;;;;;1.55;0.57;;;10.60;99.90;;;;;;4112719;28;20042;-81
2021/05/25 03:17:15;;;;;;;2.30;0.70;;;10.60;99.90;;;;;;4128137;28;20038;-81
2021/05/25 03:19:15;;;;;;;1.55;0.40;;;10.50;99.90;;;;;;4120369;28;20499;-81
2021/05/25 03:21:16;;;;;;;0.75;0.52;;;10.50;99.90;;;;;;4127747;28;20330;-81
2021/05/25 03:23:17;;;;;;;1.95;0.73;;;10.50;99.90;;;;;;4128294;28;20037;-81
2021/05/25 03:25:18;;;;;;;1.58;0.60;;;10.50;99.90;;;;;;4127682;28;20152;-81
2021/05/25 03:27:19;;;;;;;3.50;0.68;;;10.40;99.90;;;;;;4112347;28;20035;-81
2021/05/25 03:29:20;;;;;;;2.17;0.70;;;10.50;99.90;;;;;;4111903;28;20050;-81
2021/05/25 03:31:20;;;;;;;1.55;0.70;;;10.50;99.90;;;;;;4105714;28;20039;-81
2021/05/25 03:33:21;;;;;;;1.45;0.55;;;10.50;99.90;;;;;;4112356;28;20147;-81
2021/05/25 03:35:23;;;;;;;1.73;0.70;;;10.50;99.90;;;;;;4112015;28;20038;-81
2021/05/25 03:37:24;;;;;;;1.00;0.73;;;10.50;99.90;;;;;;4112691;28;20054;-81
2021/05/25 03:39:25;;;;;;;3.53;1.15;;;10.50;99.90;;;;;;4127448;28;20125;-81
2021/05/25 03:41:25;;;;;;;2.78;0.80;;;10.50;99.90;;;;;;4111429;28;20470;-81
2021/05/25 03:43:26;;;;;;;1.05;0.52;;;10.50;99.90;;;;;;4127308;28;20031;-81
2021/05/25 03:45:27;;;;;;;1.67;0.40;;;10.50;99.90;;;;;;4129044;28;20045;-80
2021/05/25 03:47:28;;;;;;;3.55;0.77;;;10.50;99.90;;;;;;4110406;28;20031;-80
2021/05/25 03:49:29;;;;;;;1.67;0.60;;;10.50;99.90;;;;;;4127983;28;20038;-81
2021/05/25 03:51:31;;;;;;;2.08;0.73;;;10.50;99.90;;;;;;4128868;28;20468;-81
2021/05/25 03:53:31;;;;;;;0.82;0.57;;;10.50;99.90;;;;;;4127790;28;20170;-81
2021/05/25 04:00:12;;;;;;;2.25;0.45;;;10.50;99.90;;;;;;4127931;28;20042;-81
2021/05/25 04:02:13;;;;;;;7.80;0.90;;;10.50;99.90;;;;;;4109742;28;20034;-80
2021/05/25 04:04:14;;;;;;;1.20;0.70;;;10.50;99.90;;;;;;4111753;28;20122;-81
2021/05/25 04:06:15;;;;;;;2.00;0.70;;;10.50;99.90;;;;;;4111754;28;20529;-81
2021/05/25 04:08:16;;;;;;;1.13;0.60;;;10.50;99.90;;;;;;4141040;28;20045;-81
2021/05/25 04:10:17;;;;;;;1.40;0.47;;;10.60;99.90;;;;;;4110947;28;20026;-81
2021/05/25 04:12:18;;;;;;;1.17;0.57;;;10.60;99.90;;;;;;4126658;28;20162;-81
2021/05/25 04:14:18;;;;;;;1.52;0.68;;;10.60;99.90;;;;;;4111317;28;20043;-81
2021/05/25 04:16:19;;;;;;;0.65;0.52;;;10.60;99.90;;;;;;4143895;28;20042;-81
2021/05/25 04:18:20;;;;;;;3.33;0.50;;;10.60;99.90;;;;;;4127010;28;20044;-81
2021/05/25 04:20:22;;;;;;;1.10;0.40;;;10.70;99.90;;;;;;4110190;28;20038;-81
2021/05/25 04:22:23;;;;;;;1.70;0.68;;;10.50;99.90;;;;;;4126285;28;20129;-81
2021/05/25 04:24:23;;;;;;;1.27;0.70;;;10.60;99.90;;;;;;4127202;28;20120;-80
2021/05/25 04:26:25;;;;;;;2.65;0.60;;;10.60;99.90;;;;;;4128438;28;20038;-80
2021/05/25 04:28:25;;;;;;;2.78;0.77;;;10.70;99.90;;;;;;4127572;28;20034;-80
2021/05/25 04:30:26;;;;;;;2.60;0.73;;;10.70;99.90;;;;;;4127030;28;20122;-81
2021/05/25 04:32:26;;;;;;;1.10;0.60;;;10.60;99.90;;;;;;4110560;28;20039;-81
2021/05/25 04:34:27;;;;;;;1.98;0.70;;;10.60;99.90;;;;;;4128708;28;20030;-81
2021/05/25 04:36:28;;;;;;;0.95;0.57;;;10.70;99.90;;;;;;4111000;28;20060;-80
2021/05/25 04:38:28;;;;;;;2.58;0.57;;;10.70;99.90;;;;;;4111397;28;20527;-80
2021/05/25 04:40:30;;;;;;;1.45;0.60;;;10.70;99.90;;;;;;4104488;28;20062;-80
2021/05/25 04:42:30;;;;;;;3.20;0.60;;;10.70;99.90;;;;;;4119153;28;20094;-81
2021/05/25 04:44:31;;;;;;;1.38;0.80;;;10.70;99.90;;;;;;4111530;28;20442;-81
2021/05/25 04:46:32;;;;;;;3.92;0.73;;;10.70;99.90;;;;;;4125992;28;20093;-80
2021/05/25 04:48:32;;;;;;;4.07;0.73;;;10.80;99.90;;;;;;4127287;28;20030;-80
2021/05/25 04:50:33;;;;;;;1.05;0.50;;;10.80;99.90;;;;;;4127453;28;20027;-81
2021/05/25 04:52:35;;;;;;;2.20;0.60;;;10.80;99.90;;;;;;4126826;28;20030;-81
2021/05/25 04:54:36;;;;;;;1.42;0.55;;;10.90;99.90;;;;;;4111242;28;20050;-81
2021/05/25 04:56:36;;;;;;;0.93;0.52;;;10.80;99.90;;;;;;4109596;28;20525;-81
2021/05/25 04:58:37;;;;;;;2.00;0.90;;;10.80;99.90;;;;;;4115217;28;20124;-81
2021/05/25 05:00:38;;;;;;;1.25;0.85;;;10.70;99.90;;;;;;4127123;28;20044;-81
2021/05/25 05:02:39;;;;;;;1.13;0.77;;;10.80;99.90;;;;;;4126689;28;20104;-81
2021/05/25 05:04:40;;;;;;;1.38;0.77;;;10.80;99.90;;;;;;4110924;28;20039;-81
2021/05/25 05:06:41;;;;;;;2.90;0.70;;;10.80;99.90;;;;;;4126588;28;20117;-81
2021/05/25 05:08:43;;;;;;;0.55;0.47;;;10.80;99.90;;;;;;4110403;28;20081;-81
2021/05/25 05:10:45;;;;;;;1.27;0.60;;;10.80;99.90;;;;;;4105448;28;20411;-81
2021/05/25 05:12:47;;;;;;;1.35;0.63;;;10.90;99.90;;;;;;4119439;28;20084;-81
2021/05/25 05:14:47;;;;;;;2.80;0.85;;;10.90;99.90;;;;;;4120752;28;20027;-81
2021/05/25 05:16:48;;;;;;;1.77;0.70;;;10.90;99.90;;;;;;4122339;28;20125;-81
2021/05/25 05:18:49;;;;;;;1.50;0.70;;;10.90;99.90;;;;;;4122421;28;20184;-81
2021/05/25 05:20:49;;;;;;;1.17;0.50;;;10.90;99.90;;;;;;4126316;28;20479;-81
2021/05/25 05:22:50;;;;;;;1.58;0.77;;;10.90;99.90;;;;;;4117869;28;20165;-80
2021/05/25 05:24:51;;;;;;;3.80;2.25;;;10.90;99.90;;;;;;4122071;28;20101;-81
2021/05/25 05:26:51;;;;;;;5.95;4.05;;;10.90;99.90;;;;;;4124656;28;20042;-81
2021/05/25 05:28:52;;;;;;;4.22;2.83;;;10.90;99.90;;;;;;4120050;28;20030;-81
2021/05/25 05:30:52;;;;;;;2.70;1.85;;;10.90;99.90;;;;;;4107499;28;20430;-81
2021/05/25 05:32:53;;;;;;;3.30;1.20;;;10.90;99.90;;;;;;4121944;28;20112;-81
2021/05/25 05:34:54;;;;;;;0.80;0.80;;;10.90;99.90;;;;;;4119925;28;20042;-81
2021/05/25 05:36:54;;;;;;;3.08;1.15;;;10.90;99.90;;;;;;4094357;28;20047;-81
2021/05/25 05:38:55;;;;;;;0.88;0.73;;;11.00;99.90;;;;;;4113644;28;20109;-81
2021/05/25 05:41:03;;;;;;;2.88;0.85;;;10.90;99.90;;;;;;4125665;28;20514;-81
2021/05/25 05:43:04;;;;;;;2.75;0.88;;;10.90;99.90;;;;;;4128613;28;20045;-81
2021/05/25 05:45:05;;;;;;;2.63;0.82;;;10.90;99.90;;;;;;4126580;28;20266;-81
2021/05/25 05:47:06;;;;;;;3.10;0.90;;;10.90;99.90;;;;;;4123680;28;20110;-81
2021/05/25 05:49:06;;;;;;;2.03;1.00;;;11.00;99.90;;;;;;4127393;28;20077;-81
2021/05/25 05:51:07;;;;;;;1.63;0.88;;;11.10;99.90;;;;;;4123434;28;20426;-81
2021/05/25 05:53:07;;;;;;;0.70;0.50;;;11.00;99.90;;;;;;4125390;28;20038;-81
2021/05/25 05:55:09;;;;;;;2.97;1.00;;;11.00;99.90;;;;;;4112281;28;20030;-81
2021/05/25 05:57:09;;;;;;;3.70;1.00;;;11.00;99.90;;;;;;4126576;28;20123;-81
2021/05/25 05:59:10;;;;;;;2.75;1.02;;;11.00;99.90;;;;;;4122041;28;20537;-81
2021/05/25 06:01:11;;;;;;;1.98;0.88;;;10.90;99.90;;;;;;4116824;28;20432;-81
2021/05/25 06:03:12;;;;;;;2.63;1.15;;;11.00;99.90;;;;;;4123405;28;20110;-81
2021/05/25 06:05:13;;;;;;;1.50;1.10;;;11.00;99.90;;;;;;4125108;28;20034;-81
2021/05/25 06:07:22;;;;;;;2.35;0.70;;;11.00;99.90;;;;;;4130301;28;20058;-81
2021/05/25 06:09:47;;;;;;;1.70;1.00;;;11.00;99.90;;;;;;4124947;28;20034;-81
2021/05/25 06:11:53;;;;;;;2.55;1.13;;;11.00;99.90;;;;;;4119050;28;20022;-82
2021/05/25 06:13:54;;;;;;;3.65;1.00;;;11.10;99.90;;;;;;4117324;28;20023;-81
2021/05/25 06:16:01;;;;;;;3.95;1.10;;;11.10;99.90;;;;;;4114479;28;20544;-78
2021/05/25 06:18:03;;;;;;;1.50;1.13;;;11.10;99.90;;;;;;4131330;28;20042;-78
2021/05/25 06:20:04;;;;;;;2.92;0.80;;;11.10;99.90;;;;;;4126733;28;20502;-78
2021/05/25 06:22:12;;;;;;;2.40;1.25;;;11.00;99.90;;;;;;4127646;28;20092;-78
2021/05/25 06:24:13;;;;;;;2.05;0.90;;;11.00;99.90;;;;;;4126538;28;20450;-78
2021/05/25 06:26:14;;;;;;;1.90;0.80;;;11.00;99.90;;;;;;4127444;28;20038;-78
2021/05/25 06:28:15;;;;;;;1.63;0.90;;;10.90;99.90;;;;;;4144712;28;20554;-78
2021/05/25 06:30:17;;;;;;;1.15;0.50;;;10.90;99.90;;;;;;4128748;28;20043;-78
2021/05/25 06:32:19;;;;;;;2.70;0.65;;;10.90;99.90;;;;;;4125628;28;20927;-78
2021/05/25 06:34:19;;;;;;;0.75;0.65;;;10.90;99.90;;;;;;4124829;28;20093;-78
2021/05/25 06:36:20;;;;;;;0.90;0.70;;;10.80;99.90;;;;;;4131486;28;20057;-78
2021/05/25 06:38:20;;;;;;;1.55;0.68;;;10.80;99.90;;;;;;4126052;28;20039;-78
2021/05/25 06:40:21;;;;;;;0.88;0.60;;;10.90;99.90;;;;;;4125015;28;20121;-78
2021/05/25 06:42:22;;;;;;;1.75;0.75;;;10.90;99.90;;;;;;4127674;28;20046;-78
2021/05/25 06:44:22;;;;;;;1.13;0.70;;;10.90;99.90;;;;;;4129919;28;20050;-78
2021/05/25 06:46:23;;;;;;;1.40;0.77;;;10.90;99.90;;;;;;4127741;28;20069;-78
2021/05/25 06:48:25;;;;;;;0.75;0.55;;;11.00;99.90;;;;;;4124341;28;20039;-78
2021/05/25 06:50:26;;;;;;;1.10;0.73;;;11.00;99.90;;;;;;4129600;28;20045;-78
2021/05/25 06:52:26;;;;;;;2.45;0.68;;;11.00;99.90;;;;;;4129900;28;20398;-78
2021/05/25 06:54:29;;;;;;;2.13;0.77;;;11.00;99.90;;;;;;4131294;28;20129;-78
2021/05/25 06:56:30;;;;;;;2.45;0.60;;;11.00;99.90;;;;;;4125606;28;20058;-78
2021/05/25 06:58:32;;;;;;;0.93;0.60;;;11.10;99.90;;;;;;4125303;28;20038;-78
2021/05/25 07:00:32;;;;;;;1.90;0.60;;;11.10;99.90;;;;;;4111577;28;20039;-78
2021/05/25 07:02:33;;;;;;;1.20;0.80;;;11.10;99.90;;;;;;4108548;28;21030;-78
2021/05/25 07:04:34;;;;;;;2.35;1.30;;;11.10;99.90;;;;;;4134335;28;20065;-78
2021/05/25 07:06:34;;;;;;;2.17;0.82;;;11.00;99.90;;;;;;4135941;28;20047;-78
2021/05/25 07:08:36;;;;;;;2.13;0.93;;;11.10;99.90;;;;;;4126841;28;20045;-78
2021/05/25 07:10:36;;;;;;;1.20;0.90;;;11.10;99.90;;;;;;4109752;28;20046;-78
2021/05/25 07:12:37;;;;;;;2.53;0.80;;;11.10;99.90;;;;;;4127559;28;20502;-78
2021/05/25 07:14:40;;;;;;;1.27;0.70;;;11.20;99.90;;;;;;4128755;28;20117;-78
2021/05/25 07:16:41;;;;;;;4.00;1.30;;;11.20;99.90;;;;;;4131164;28;20045;-78
2021/05/25 07:18:42;;;;;;;3.42;1.17;;;11.20;99.90;;;;;;4106589;28;20058;-79
2021/05/25 07:20:43;;;;;;;4.03;0.85;;;11.10;99.90;;;;;;4126746;28;20585;-78
2021/05/25 07:22:44;;;;;;;1.23;0.82;;;11.10;99.90;;;;;;4123535;28;20043;-78
2021/05/25 07:24:46;;;;;;;1.35;0.80;;;11.10;99.90;;;;;;4124993;28;20129;-78
2021/05/25 07:26:47;;;;;;;2.38;0.80;;;11.10;99.90;;;;;;4127896;28;20043;-78
2021/05/25 07:28:48;;;;;;;2.83;1.08;;;11.20;99.90;;;;;;4128478;28;20035;-78
2021/05/25 07:30:49;;;;;;;1.25;0.80;;;11.20;99.90;;;;;;4112107;28;20050;-78
2021/05/25 07:32:56;;;;;;;1.17;0.82;;;11.30;99.90;;;;;;4127858;28;20049;-78
2021/05/25 07:34:57;;;;;;;2.22;1.02;;;11.30;99.90;;;;;;4128337;28;20049;-78
2021/05/25 07:37:00;;;;;;;1.77;0.75;;;11.40;99.90;;;;;;4125782;28;20093;-78
2021/05/25 07:39:04;;;;;;;3.38;1.15;;;11.40;99.90;;;;;;4127379;28;20042;-78
2021/05/25 07:41:06;;;;;;;1.55;1.00;;;11.50;99.90;;;;;;4109382;28;20042;-78
2021/05/25 07:43:09;;;;;;;4.78;1.13;;;11.50;99.90;;;;;;4128905;28;20410;-78
2021/05/25 07:45:11;;;;;;;1.83;1.00;;;11.50;99.90;;;;;;4113466;28;20085;-78
2021/05/25 07:47:19;;;;;;;1.25;0.85;;;11.60;99.90;;;;;;4122173;28;20039;-78
2021/05/25 07:49:21;;;;;;;0.80;0.80;;;11.60;99.90;;;;;;4127878;28;20159;-78
2021/05/25 07:51:21;;;;;;;1.23;0.80;;;11.60;99.90;;;;;;4128355;28;20031;-78
2021/05/25 07:53:22;;;;;;;1.35;0.80;;;11.60;99.90;;;;;;4132058;28;20459;-78
2021/05/25 07:55:30;;;;;;;3.65;1.15;;;11.70;99.90;;;;;;4128137;28;20053;-78
2021/05/25 07:57:31;;;;;;;1.38;0.93;;;11.70;99.90;;;;;;4127700;28;20034;-81
2021/05/25 07:59:32;;;;;;;2.35;1.05;;;11.70;99.90;;;;;;4126450;28;20379;-79
2021/05/25 08:01:33;;;;;;;1.35;1.13;;;11.70;99.90;;;;;;4119337;28;20125;-79
2021/05/25 08:03:34;;;;;;;2.42;0.82;;;11.60;99.90;;;;;;4125960;28;20128;-79
2021/05/25 08:05:34;;;;;;;2.25;1.27;;;11.70;99.90;;;;;;4125392;28;20046;-79
2021/05/25 08:07:38;;;;;;;1.77;1.02;;;11.60;99.90;;;;;;4126060;28;20042;-79
2021/05/25 08:09:39;;;;;;;0.70;0.70;;;11.60;99.90;;;;;;4128220;28;20110;-79
2021/05/25 08:11:39;;;;;;;1.17;0.90;;;11.60;99.90;;;;;;4109319;28;20047;-78
2021/05/25 08:13:44;;;;;;;1.27;1.00;;;11.70;99.90;;;;;;4129795;28;20053;-79
2021/05/25 08:15:49;;;;;;;3.25;1.40;;;11.80;99.90;;;;;;4129002;28;20037;-79
2021/05/25 08:20:02;;;;;;;2.25;1.23;;;11.90;99.90;;;;;;4124566;28;20030;-79
2021/05/25 08:22:03;;;;;;;1.33;1.15;;;11.90;99.90;;;;;;4123302;28;20035;-78
2021/05/25 08:24:07;;;;;;;1.42;1.00;;;12.00;99.90;;;;;;4130790;28;20037;-78
2021/05/25 08:26:07;;;;;;;5.80;1.10;;;12.10;99.90;;;;;;4124283;28;20456;-78
2021/05/25 08:28:14;;;;;;;1.98;0.77;;;12.10;99.90;;;;;;4110496;28;20035;-79
2021/05/25 08:30:19;;;;;;;1.40;1.10;;;12.20;99.90;;;;;;4110526;28;20087;-78
2021/05/25 08:32:20;;;;;;;0.98;0.90;;;12.20;99.90;;;;;;4129465;28;20122;-79
2021/05/25 08:34:20;;;;;;;2.38;1.42;;;12.20;99.90;;;;;;4130823;28;20042;-78
2021/05/25 08:36:23;;;;;;;1.77;0.93;;;12.20;99.90;;;;;;4131464;28;20035;-78
2021/05/25 08:38:26;;;;;;;1.67;0.80;;;12.30;99.90;;;;;;4126870;28;20387;-79
2021/05/25 08:40:28;;;;;;;1.92;1.00;;;12.40;99.90;;;;;;4129713;28;20042;-79
2021/05/25 08:42:29;;;;;;;2.65;1.05;;;12.50;99.90;;;;;;4106098;28;20034;-79
2021/05/25 08:44:30;;;;;;;1.63;0.90;;;12.50;99.90;;;;;;4126748;28;20864;-79
2021/05/25 08:46:32;;;;;;;2.38;0.90;;;12.60;99.90;;;;;;4129499;28;20065;-79
2021/05/25 08:48:40;;;;;;;2.23;1.53;;;12.70;99.90;;;;;;4132133;28;20181;-79
2021/05/25 08:50:41;;;;;;;5.07;1.60;;;12.80;99.90;;;;;;4124711;28;20034;-79
2021/05/25 08:52:44;;;;;;;2.30;1.38;;;12.90;99.90;;;;;;4127881;28;20137;-79
2021/05/25 08:54:47;;;;;;;2.35;1.40;;;12.90;99.90;;;;;;4110334;28;20031;-79
2021/05/25 08:56:48;;;;;;;;;;;12.90;99.90;;;;;;4126185;28;20608;-79
2021/05/25 08:58:49;;;;;;;3.08;1.20;;;13.10;99.90;;;;;;4129273;28;19924;-79
2021/05/25 09:00:56;;;;;;;3.05;1.20;;;13.20;99.90;;;;;;4130670;28;20121;-79
2021/05/25 09:02:57;;;;;;;3.88;1.42;;;13.30;99.90;;;;;;4103302;28;20134;-79
2021/05/25 09:04:58;;;;;;;3.88;1.70;;;13.40;99.90;;;;;;4129506;28;20037;-79
2021/05/25 09:06:58;;;;;;;3.90;2.03;;;13.50;99.90;;;;;;4129368;28;20057;-79
2021/05/25 09:09:09;;;;;;;2.83;1.30;;;13.50;99.90;;;;;;4127826;28;20030;-79
2021/05/25 09:11:17;;;;;;;2.70;1.23;;;13.40;99.90;;;;;;4123703;28;20092;-79
2021/05/25 09:13:28;;;;;;;2.03;1.13;;;13.40;99.90;;;;;;4120312;28;20030;-79
2021/05/25 09:15:35;;;;;;;1.95;1.20;;;13.40;99.90;;;;;;4133815;28;20542;-79
2021/05/25 09:17:35;;;;;;;3.13;1.38;;;13.30;99.90;;;;;;4133130;28;20090;-79
2021/05/25 09:19:54;;;;;;;2.13;1.40;;;13.30;99.90;;;;;;4134965;28;20042;-79
2021/05/25 09:21:55;;;;;;;3.63;1.30;;;13.40;99.90;;;;;;4130356;28;20387;-80
2021/05/25 09:23:55;;;;;;;3.05;1.25;;;13.40;99.90;;;;;;4113268;28;20042;-79
2021/05/25 09:26:03;;;;;;;1.48;1.20;;;13.40;99.90;;;;;;4154682;28;20040;-78
2021/05/25 09:28:10;;;;;;;3.55;1.60;;;13.60;99.90;;;;;;4131283;28;20077;-79
2021/05/25 09:30:21;;;;;;;6.25;2.05;;;13.70;99.90;;;;;;4128361;28;20062;-79
2021/05/25 09:32:21;;;;;;;3.90;1.63;;;13.70;99.90;;;;;;4129797;28;20034;-79
2021/05/25 09:34:24;;;;;;;4.65;1.52;;;13.90;99.90;;;;;;4127932;28;20061;-79
2021/05/25 09:36:25;;;;;;;3.33;1.75;;;14.00;99.90;;;;;;4135565;28;20031;-79
2021/05/25 09:38:28;;;;;;;3.60;1.80;;;14.00;99.90;;;;;;4129277;28;20081;-79
2021/05/25 09:40:30;;;;;;;2.90;1.00;;;14.00;99.90;;;;;;4126120;28;20058;-79
2021/05/25 09:42:31;;;;;;;1.05;0.63;;;14.00;99.90;;;;;;4134344;28;20046;-78
2021/05/25 09:44:55;;;;;;;2.17;0.90;;;13.90;99.90;;;;;;4133289;28;20053;-79
2021/05/25 09:47:01;;;;;;;2.90;1.10;;;13.80;99.90;;;;;;4133854;28;20046;-79
2021/05/25 09:49:05;;;;;;;1.33;0.70;;;13.80;99.90;;;;;;4131732;28;20552;-79
2021/05/25 09:51:22;;;;;;;2.50;0.70;;;13.80;99.90;;;;;;4128312;28;20093;-78
2021/05/25 09:53:25;;;;;;;0.77;0.65;;;13.70;99.90;;;;;;4130578;28;20039;-79
2021/05/25 09:55:28;;;;;;;3.22;1.25;;;13.60;99.90;;;;;;4132037;28;20090;-79
2021/05/25 09:57:44;;;;;;;3.90;1.23;;;13.50;99.90;;;;;;4137834;28;20034;-79
2021/05/25 09:59:50;;;;;;;4.20;1.15;;;13.40;99.90;;;;;;4128265;28;20034;-79
2021/05/25 10:01:51;;;;;;;1.75;0.90;;;13.40;99.90;;;;;;4113014;28;20082;-79
2021/05/25 10:03:53;;;;;;;4.20;1.10;;;13.50;99.90;;;;;;4125960;28;20039;-79
2021/05/25 10:06:00;;;;;;;1.40;1.10;;;13.40;99.90;;;;;;4134373;28;20035;-79
2021/05/25 10:08:02;;;;;;;4.30;1.27;;;13.50;99.90;;;;;;4131003;28;20034;-79
2021/05/25 10:10:05;;;;;;;6.80;1.70;;;13.50;99.90;;;;;;4123258;28;20066;-79
2021/05/25 10:12:06;;;;;;;4.65;1.67;;;13.60;99.90;;;;;;4128880;28;20583;-79
2021/05/25 10:14:09;;;;;;;3.67;1.15;;;13.70;99.90;;;;;;4130043;28;20085;-79
2021/05/25 10:16:12;;;;;;;6.07;1.38;;;13.80;99.90;;;;;;4129431;28;20039;-78
2021/05/25 10:20:18;;;;;;;4.25;1.20;;;13.80;99.90;;;;;;4143806;28;19996;-78
2021/05/25 10:22:20;;;;;;;3.88;1.55;;;13.80;99.90;;;;;;4114788;28;20395;-78
2021/05/25 10:24:21;;;;;;;5.57;1.75;;;13.70;99.90;;;;;;4132023;28;20391;-78
2021/05/25 10:26:24;;;;;;;5.72;1.88;;;13.70;99.90;;;;;;4134804;28;20048;-78
2021/05/25 10:28:25;;;;;;;5.70;1.85;;;13.70;99.90;;;;;;4128649;28;20117;-78
2021/05/25 10:30:28;;;;;;;6.20;1.92;;;13.70;99.90;;;;;;4125814;28;20050;-78
2021/05/25 10:32:28;;;;;;;2.92;1.60;;;13.60;99.90;;;;;;4128146;28;20121;-78
2021/05/25 10:34:35;;;;;;;5.60;1.90;;;13.70;99.90;;;;;;4129024;28;20038;-78
2021/05/25 10:36:48;;;;;;;7.10;2.63;;;13.70;99.90;;;;;;4116040;28;20046;-78
2021/05/25 10:38:49;;;;;;;10.25;2.53;;;13.70;99.90;;;;;;4126537;28;20160;-78
2021/05/25 10:40:56;;;;;;;6.63;2.67;;;13.50;99.90;;;;;;4126199;28;20030;-77
2021/05/25 10:43:31;;;;;;;2.83;1.65;;;13.10;99.90;;;;;;4126550;28;20081;-78
2021/05/25 10:45:41;;;;;;;5.40;1.83;;;13.00;99.90;;;;;;4128772;28;20814;-77